createdAt,value
2024-02-23T00:00:33.825Z,98693.63
2024-02-23T00:03:00.258Z,98690.75
2024-02-23T00:05:26.753Z,98703.66
2024-02-23T00:07:53.492Z,98703.25
2024-02-23T00:10:20.005Z,98703.72
2024-02-23T00:12:48.621Z,98709.28
2024-02-23T00:15:14.986Z,98707.00
2024-02-23T00:17:41.712Z,98710.94
2024-02-23T00:20:12.135Z,98724.69
2024-02-23T00:22:39.318Z,98722.72
2024-02-23T00:25:06.867Z,98719.72
2024-02-23T00:27:33.345Z,98724.72
2024-02-23T00:30:00.082Z,98724.72
2024-02-23T00:32:26.726Z,98729.88
2024-02-23T00:34:53.232Z,98735.72
2024-02-23T00:37:19.689Z,98740.03
2024-02-23T00:39:46.301Z,98740.72
2024-02-23T00:42:12.740Z,98734.47
2024-02-23T00:44:39.366Z,98742.13
2024-02-23T00:47:06.169Z,98742.03
2024-02-23T00:49:32.686Z,98746.19
2024-02-23T00:51:59.106Z,98750.34
2024-02-23T00:54:25.577Z,98759.81
2024-02-23T00:56:53.610Z,98751.63
2024-02-23T00:59:22.294Z,98761.09
2024-02-23T01:01:49.097Z,98773.19
2024-02-23T01:04:15.755Z,98777.38
2024-02-23T01:06:42.376Z,98766.00
2024-02-23T01:09:09.043Z,98773.06
2024-02-23T01:11:36.760Z,98778.47
2024-02-23T01:14:03.364Z,98798.72
2024-02-23T01:16:30.082Z,98795.91
2024-02-23T01:18:56.783Z,98808.56
2024-02-23T01:21:23.208Z,98803.72
2024-02-23T01:23:49.714Z,98818.22
2024-02-23T01:26:16.375Z,98816.94
2024-02-23T01:28:42.849Z,98819.69
2024-02-23T01:31:11.905Z,98816.00
2024-02-23T01:33:40.008Z,98819.69
2024-02-23T01:36:07.257Z,98835.38
2024-02-23T01:38:34.015Z,98853.94
2024-02-23T01:41:01.314Z,98850.84
2024-02-23T01:43:28.027Z,98829.31
2024-02-23T01:45:55.172Z,98831.13
2024-02-23T01:48:22.613Z,98816.97
2024-02-23T01:50:49.246Z,98836.41
2024-02-23T01:53:16.669Z,98849.44
2024-02-23T01:55:43.794Z,98864.16
2024-02-23T01:58:10.406Z,98858.53
2024-02-23T02:00:37.831Z,98857.41
2024-02-23T02:03:08.874Z,98863.41
2024-02-23T02:05:38.674Z,98869.25
2024-02-23T02:08:05.929Z,98863.06
2024-02-23T02:10:32.893Z,98863.75
2024-02-23T02:13:06.654Z,98867.25
2024-02-23T02:15:33.261Z,98866.25
2024-02-23T02:17:59.872Z,98860.16
2024-02-23T02:20:29.875Z,98870.00
2024-02-23T02:22:56.593Z,98877.06
2024-02-23T02:25:23.459Z,98872.72
2024-02-23T02:27:50.080Z,98865.78
2024-02-23T02:30:16.650Z,98864.25
2024-02-23T02:32:43.552Z,98867.97
2024-02-23T02:35:13.552Z,98880.31
2024-02-23T02:37:40.703Z,98888.47
2024-02-23T02:40:07.804Z,98863.09
2024-02-23T02:42:35.109Z,98887.75
2024-02-23T02:45:02.019Z,98876.28
2024-02-23T02:47:29.027Z,98868.63
2024-02-23T02:49:55.632Z,98874.81
2024-02-23T02:52:24.188Z,98884.53
2024-02-23T02:54:51.104Z,98883.59
2024-02-23T02:57:17.662Z,98881.91
2024-02-23T02:59:45.782Z,98885.38
2024-02-23T03:02:12.382Z,98884.44
2024-02-23T03:04:38.811Z,98887.16
2024-02-23T03:07:05.973Z,98886.34
2024-02-23T03:09:32.598Z,98888.16
2024-02-23T03:11:59.241Z,98884.78
2024-02-23T03:14:27.112Z,98901.69
2024-02-23T03:16:53.822Z,98899.19
2024-02-23T03:19:23.602Z,98915.00
2024-02-23T03:21:52.979Z,98905.28
2024-02-23T03:24:19.446Z,98921.22
2024-02-23T03:26:46.192Z,98912.63
2024-02-23T03:29:12.900Z,98908.28
2024-02-23T03:31:39.539Z,98919.78
2024-02-23T03:34:06.244Z,98907.59
2024-02-23T03:36:32.702Z,98926.16
2024-02-23T03:38:59.318Z,98921.72
2024-02-23T03:41:26.111Z,98918.50
2024-02-23T03:43:52.898Z,98917.75
2024-02-23T03:46:20.913Z,98935.38
2024-02-23T03:48:47.583Z,98938.16
2024-02-23T03:51:14.274Z,98946.06
2024-02-23T03:53:40.792Z,98940.06
2024-02-23T03:56:07.436Z,98945.31
2024-02-23T03:58:33.936Z,98944.34
2024-02-23T04:01:00.463Z,98952.41
2024-02-23T04:03:26.993Z,98943.66
2024-02-23T04:05:53.470Z,98943.66
2024-02-23T04:08:20.113Z,98938.41
2024-02-23T04:10:46.939Z,98942.94
2024-02-23T04:13:15.060Z,98950.13
2024-02-23T04:15:41.632Z,98941.38
2024-02-23T04:18:08.121Z,98942.44
2024-02-23T04:20:35.155Z,98947.84
2024-02-23T04:23:02.019Z,98952.28
2024-02-23T04:25:28.690Z,98963.19
2024-02-23T04:27:55.948Z,98963.91
2024-02-23T04:30:22.662Z,98963.19
2024-02-23T04:32:49.730Z,98958.88
2024-02-23T04:35:16.742Z,98961.50
2024-02-23T04:37:46.484Z,98968.59
2024-02-23T04:40:13.074Z,98971.22
2024-02-23T04:42:40.307Z,98973.97
2024-02-23T04:45:08.455Z,98981.28
2024-02-23T04:47:34.988Z,98976.94
2024-02-23T04:50:01.722Z,98990.25
2024-02-23T04:52:28.171Z,98985.94
2024-02-23T04:54:54.582Z,98991.06
2024-02-23T04:57:21.244Z,98985.69
2024-02-23T04:59:47.748Z,98982.09
2024-02-23T05:02:14.657Z,98990.72
2024-02-23T05:04:41.321Z,98993.22
2024-02-23T05:07:07.996Z,98990.72
2024-02-23T05:09:36.173Z,98987.13
2024-02-23T05:12:02.803Z,98985.22
2024-02-23T05:14:29.521Z,98988.69
2024-02-23T05:16:56.125Z,98980.78
2024-02-23T05:19:28.823Z,98983.41
2024-02-23T05:21:55.490Z,98984.25
2024-02-23T05:24:24.528Z,98984.00
2024-02-23T05:26:51.046Z,98980.41
2024-02-23T05:29:19.420Z,98979.34
2024-02-23T05:31:54.055Z,98980.06
2024-02-23T05:34:21.259Z,98989.53
2024-02-23T05:36:48.908Z,98990.34
2024-02-23T05:39:18.818Z,98987.63
2024-02-23T05:41:45.580Z,98979.56
2024-02-23T05:44:14.428Z,98982.94
2024-02-23T05:46:41.065Z,98984.50
2024-02-23T05:49:07.671Z,98984.38
2024-02-23T05:51:34.927Z,98987.72
2024-02-23T05:54:01.403Z,98992.03
2024-02-23T05:56:27.976Z,98987.59
2024-02-23T05:58:55.442Z,98984.84
2024-02-23T06:01:22.163Z,98985.69
2024-02-23T06:03:48.675Z,98982.78
2024-02-23T06:06:15.441Z,98980.88
2024-02-23T06:08:45.338Z,98991.66
2024-02-23T06:11:12.032Z,98986.25
2024-02-23T06:13:39.293Z,98986.03
2024-02-23T06:16:10.809Z,98985.78
2024-02-23T06:18:37.708Z,98990.09
2024-02-23T06:21:06.453Z,98991.78
2024-02-23T06:23:32.906Z,98985.53
2024-02-23T06:25:59.380Z,98991.53
2024-02-23T06:28:25.853Z,98992.09
2024-02-23T06:30:52.282Z,98997.28
2024-02-23T06:33:19.005Z,99005.03
2024-02-23T06:35:45.812Z,99010.94
2024-02-23T06:38:12.728Z,99005.41
2024-02-23T06:40:46.242Z,99009.63
2024-02-23T06:43:21.232Z,99004.34
2024-02-23T06:45:49.551Z,99008.50
2024-02-23T06:48:16.179Z,99018.09
2024-02-23T06:50:42.903Z,99008.16
2024-02-23T06:53:09.511Z,99006.91
2024-02-23T06:55:37.046Z,99005.16
2024-02-23T06:58:06.331Z,98999.72
2024-02-23T07:00:33.026Z,99004.75
2024-02-23T07:03:00.411Z,98997.56
2024-02-23T07:05:27.142Z,98998.25
2024-02-23T07:07:53.942Z,98999.72
2024-02-23T07:10:21.408Z,99012.06
2024-02-23T07:12:47.935Z,99014.56
2024-02-23T07:15:15.244Z,99006.78
2024-02-23T07:17:42.035Z,99007.47
2024-02-23T07:20:09.269Z,99000.44
2024-02-23T07:22:35.786Z,99011.44
2024-02-23T07:25:04.882Z,99009.75
2024-02-23T07:27:32.008Z,99011.56
2024-02-23T07:29:58.775Z,98998.97
2024-02-23T07:32:25.635Z,99004.13
2024-02-23T07:34:52.630Z,98998.84
2024-02-23T07:37:19.422Z,98999.53
2024-02-23T07:39:45.838Z,99006.50
2024-02-23T07:42:14.357Z,98987.06
2024-02-23T07:44:41.321Z,98989.56
2024-02-23T07:47:07.994Z,98981.53
2024-02-23T07:49:34.664Z,98979.63
2024-02-23T07:52:01.215Z,98975.91
2024-02-23T07:54:27.743Z,98975.50
2024-02-23T07:56:54.390Z,98970.78
2024-02-23T07:59:20.949Z,98979.44
2024-02-23T08:01:48.381Z,98968.63
2024-02-23T08:04:14.961Z,98965.00
2024-02-23T08:06:43.264Z,98969.09
2024-02-23T08:09:10.473Z,98967.13
2024-02-23T08:11:37.472Z,98968.09
2024-02-23T08:14:04.363Z,98962.00
2024-02-23T08:16:30.964Z,98961.16
2024-02-23T08:18:57.590Z,98963.66
2024-02-23T08:21:24.008Z,98962.56
2024-02-23T08:23:50.542Z,98958.84
2024-02-23T08:26:17.338Z,98955.22
2024-02-23T08:28:44.346Z,98963.16
2024-02-23T08:31:11.001Z,98964.84
2024-02-23T08:33:37.635Z,98957.75
2024-02-23T08:36:06.964Z,98955.94
2024-02-23T08:38:34.186Z,98961.69
2024-02-23T08:41:00.920Z,98948.34
2024-02-23T08:43:30.481Z,98944.28
2024-02-23T08:46:00.045Z,98943.31
2024-02-23T08:48:29.259Z,98939.00
2024-02-23T08:50:56.427Z,98939.84
2024-02-23T08:53:22.995Z,98937.19
2024-02-23T08:55:49.771Z,98938.88
2024-02-23T08:58:17.318Z,98935.41
2024-02-23T09:00:43.857Z,98945.13
2024-02-23T09:03:10.434Z,98935.09
2024-02-23T09:05:37.183Z,98943.72
2024-02-23T09:08:03.963Z,98939.38
2024-02-23T09:10:30.538Z,98951.63
2024-02-23T09:12:56.981Z,98958.31
2024-02-23T09:15:23.557Z,98946.66
2024-02-23T09:17:50.299Z,98960.72
2024-02-23T09:20:17.155Z,98966.13
2024-02-23T09:22:43.896Z,98968.88
2024-02-23T09:25:10.436Z,98958.06
2024-02-23T09:27:41.598Z,98963.50
2024-02-23T09:30:08.664Z,98964.19
2024-02-23T09:32:35.189Z,98966.56
2024-02-23T09:35:01.751Z,98957.44
2024-02-23T09:37:28.260Z,98974.94
2024-02-23T09:39:54.641Z,98970.47
2024-02-23T09:42:28.575Z,98970.47
2024-02-23T09:45:01.417Z,98965.78
2024-02-23T09:47:29.580Z,98969.28
2024-02-23T09:49:57.048Z,98970.94
2024-02-23T09:52:24.191Z,98981.25
2024-02-23T09:54:50.748Z,98995.44
2024-02-23T09:57:19.013Z,98996.38
2024-02-23T09:59:45.872Z,99001.66
2024-02-23T10:02:16.723Z,98999.63
2024-02-23T10:04:44.978Z,99003.09
2024-02-23T10:07:11.827Z,98982.53
2024-02-23T10:09:38.383Z,98992.47
2024-02-23T10:12:05.604Z,98991.78
2024-02-23T10:14:32.316Z,98997.63
2024-02-23T10:17:00.021Z,98998.25
2024-02-23T10:19:30.185Z,98991.25
2024-02-23T10:21:57.739Z,99004.22
2024-02-23T10:24:25.680Z,99005.75
2024-02-23T10:26:52.818Z,98996.16
2024-02-23T10:29:21.163Z,99001.31
2024-02-23T10:31:51.994Z,99007.19
2024-02-23T10:34:20.686Z,99015.94
2024-02-23T10:36:48.999Z,99003.81
2024-02-23T10:39:20.557Z,99014.25
2024-02-23T10:42:01.471Z,99026.63
2024-02-23T10:44:29.748Z,99024.97
2024-02-23T10:46:57.857Z,99032.19
2024-02-23T10:49:27.848Z,99041.19
2024-02-23T10:51:55.289Z,99043.72
2024-02-23T10:54:22.885Z,99044.56
2024-02-23T10:56:52.351Z,99040.00
2024-02-23T10:59:20.095Z,99046.81
2024-02-23T11:01:51.028Z,99043.06
2024-02-23T11:04:18.595Z,99042.56
2024-02-23T11:06:51.573Z,99043.69
2024-02-23T11:09:22.418Z,99045.56
2024-02-23T11:11:55.453Z,99046.59
2024-02-23T11:14:37.431Z,99036.47
2024-02-23T11:17:05.145Z,99043.03
2024-02-23T11:19:37.127Z,99042.94
2024-02-23T11:22:05.078Z,99039.22
2024-02-23T11:24:32.857Z,99046.72
2024-02-23T11:27:01.557Z,99056.91
2024-02-23T11:29:30.231Z,99042.88
2024-02-23T11:32:01.405Z,99045.50
2024-02-23T11:34:28.899Z,99049.97
2024-02-23T11:36:55.492Z,99045.50
2024-02-23T11:39:23.287Z,99047.06
2024-02-23T11:41:50.921Z,99032.59
2024-02-23T11:44:18.594Z,99055.88
2024-02-23T11:46:46.326Z,99055.59
2024-02-23T11:49:13.057Z,99055.44
2024-02-23T11:51:39.754Z,99050.03
2024-02-23T11:54:07.203Z,99066.31
2024-02-23T11:56:33.746Z,99067.28
2024-02-23T11:59:00.494Z,99059.34
2024-02-23T12:01:30.424Z,99060.06
2024-02-23T12:03:56.882Z,99069.53
2024-02-23T12:06:23.530Z,99063.25
2024-02-23T12:08:50.642Z,99067.03
2024-02-23T12:11:17.516Z,99064.66
2024-02-23T12:13:44.038Z,99066.59
2024-02-23T12:16:10.899Z,99077.19
2024-02-23T12:18:37.847Z,99080.53
2024-02-23T12:21:08.605Z,99069.13
2024-02-23T12:23:42.669Z,99069.81
2024-02-23T12:26:09.659Z,99068.44
2024-02-23T12:28:36.665Z,99062.00
2024-02-23T12:31:04.720Z,99068.44
2024-02-23T12:33:37.086Z,99064.94
2024-02-23T12:36:05.404Z,99081.25
2024-02-23T12:38:32.404Z,99083.78
2024-02-23T12:41:00.745Z,99081.13
2024-02-23T12:43:27.961Z,99080.28
2024-02-23T12:45:58.284Z,99077.78
2024-02-23T12:48:25.019Z,99081.81
2024-02-23T12:50:52.841Z,99093.53
2024-02-23T12:53:42.127Z,99080.41
2024-02-23T12:56:11.046Z,99091.72
2024-02-23T12:58:38.527Z,99100.09
2024-02-23T13:01:06.885Z,99096.31
2024-02-23T13:03:34.586Z,99084.19
2024-02-23T13:06:01.306Z,99092.97
2024-02-23T13:08:28.424Z,99094.63
2024-02-23T13:10:55.774Z,99104.94
2024-02-23T13:13:23.232Z,99114.84
2024-02-23T13:15:52.603Z,99109.97
2024-02-23T13:18:20.536Z,99110.66
2024-02-23T13:20:47.796Z,99102.31
2024-02-23T13:23:16.655Z,99105.78
2024-02-23T13:25:44.446Z,99102.00
2024-02-23T13:28:13.578Z,99109.28
2024-02-23T13:30:40.499Z,99109.56
2024-02-23T13:33:09.120Z,99111.50
2024-02-23T13:35:35.993Z,99112.06
2024-02-23T13:38:04.486Z,99114.44
2024-02-23T13:40:32.677Z,99109.25
2024-02-23T13:42:59.480Z,99111.91
2024-02-23T13:45:26.391Z,99102.00
2024-02-23T13:48:04.155Z,99101.44
2024-02-23T13:50:31.384Z,99106.75
2024-02-23T13:52:58.721Z,99110.22
2024-02-23T13:55:25.300Z,99120.00
2024-02-23T13:57:51.848Z,99125.84
2024-02-23T14:00:20.548Z,99122.63
2024-02-23T14:02:49.086Z,99126.00
2024-02-23T14:05:16.985Z,99131.28
2024-02-23T14:07:43.963Z,99132.81
2024-02-23T14:10:10.926Z,99144.97
2024-02-23T14:12:37.637Z,99142.59
2024-02-23T14:15:06.001Z,99138.25
2024-02-23T14:17:32.646Z,99139.78
2024-02-23T14:19:59.237Z,99134.50
2024-02-23T14:22:25.887Z,99135.59
2024-02-23T14:24:52.546Z,99128.19
2024-02-23T14:27:19.370Z,99134.06
2024-02-23T14:29:47.649Z,99135.88
2024-02-23T14:32:17.981Z,99138.69
2024-02-23T14:34:45.137Z,99133.78
2024-02-23T14:37:11.634Z,99136.03
2024-02-23T14:39:38.054Z,99138.53
2024-02-23T14:42:04.952Z,99135.88
2024-02-23T14:44:31.565Z,99139.81
2024-02-23T14:46:58.205Z,99141.63
2024-02-23T14:49:25.183Z,99145.94
2024-02-23T14:51:51.886Z,99151.97
2024-02-23T14:54:25.647Z,99155.56
2024-02-23T14:56:52.239Z,99160.88
2024-02-23T14:59:18.892Z,99169.66
2024-02-23T15:01:45.438Z,99175.13
2024-02-23T15:04:12.684Z,99167.44
2024-02-23T15:06:39.937Z,99167.72
2024-02-23T15:09:06.747Z,99185.59
2024-02-23T15:11:33.695Z,99176.66
2024-02-23T15:14:02.041Z,99175.69
2024-02-23T15:16:29.212Z,99175.81
2024-02-23T15:18:55.699Z,99177.78
2024-02-23T15:21:22.209Z,99179.84
2024-02-23T15:23:48.828Z,99181.94
2024-02-23T15:26:15.624Z,99180.41
2024-02-23T15:28:42.167Z,99186.00
2024-02-23T15:31:09.641Z,99181.69
2024-02-23T15:33:39.815Z,99178.31
2024-02-23T15:36:09.288Z,99180.03
2024-02-23T15:38:37.298Z,99181.13
2024-02-23T15:41:05.152Z,99185.88
2024-02-23T15:43:31.969Z,99182.38
2024-02-23T15:45:58.404Z,99187.81
2024-02-23T15:48:26.603Z,99192.28
2024-02-23T15:51:09.954Z,99180.97
2024-02-23T15:56:06.405Z,99189.47
2024-02-23T15:58:32.859Z,99190.47
2024-02-23T16:00:59.531Z,99183.47
2024-02-23T16:03:26.166Z,99192.53
2024-02-23T16:05:52.935Z,99186.84
2024-02-23T16:08:38.667Z,99190.72
2024-02-23T16:11:05.238Z,99199.78
2024-02-23T16:13:31.999Z,99208.97
2024-02-23T16:15:58.889Z,99211.06
2024-02-23T16:18:25.393Z,99207.69
2024-02-23T16:20:52.102Z,99212.72
2024-02-23T16:23:18.551Z,99221.75
2024-02-23T16:25:45.215Z,99210.72
2024-02-23T16:28:11.747Z,99213.91
2024-02-23T16:30:39.582Z,99216.84
2024-02-23T16:33:05.993Z,99221.69
2024-02-23T16:35:39.195Z,99217.63
2024-02-23T16:38:05.869Z,99222.22
2024-02-23T16:40:32.699Z,99219.72
2024-02-23T16:43:00.428Z,99212.06
2024-02-23T16:45:28.587Z,99220.09
2024-02-23T16:47:55.981Z,99229.16
2024-02-23T16:50:22.783Z,99229.31
2024-02-23T16:52:49.963Z,99232.22
2024-02-23T16:55:19.656Z,99233.56
2024-02-23T16:57:46.300Z,99242.63
2024-02-23T17:00:13.351Z,99237.44
2024-02-23T17:02:40.065Z,99237.84
2024-02-23T17:05:06.889Z,99240.59
2024-02-23T17:07:33.658Z,99242.41
2024-02-23T17:10:00.252Z,99247.97
2024-02-23T17:12:28.684Z,99246.44
2024-02-23T17:14:55.240Z,99251.88
2024-02-23T17:17:22.062Z,99248.75
2024-02-23T17:19:49.014Z,99250.84
2024-02-23T17:22:15.650Z,99253.84
2024-02-23T17:24:42.236Z,99254.94
2024-02-23T17:27:10.163Z,99255.94
2024-02-23T17:29:36.863Z,99252.56
2024-02-23T17:32:03.443Z,99258.25
2024-02-23T17:34:30.226Z,99262.94
2024-02-23T17:36:56.797Z,99263.09
2024-02-23T17:39:24.537Z,99263.91
2024-02-23T17:41:51.095Z,99249.13
2024-02-23T17:44:18.912Z,99257.34
2024-02-23T17:46:49.334Z,99259.25
2024-02-23T17:49:16.873Z,99260.50
2024-02-23T17:51:43.452Z,99272.16
2024-02-23T17:54:10.152Z,99274.94
2024-02-23T17:56:36.845Z,99274.22
2024-02-23T17:59:04.662Z,99282.97
2024-02-23T18:01:32.342Z,99312.91
2024-02-23T18:04:07.706Z,99353.06
2024-02-23T18:06:35.403Z,99349.41
2024-02-23T18:09:02.279Z,99353.03
2024-02-23T18:11:29.198Z,99360.81
2024-02-23T18:13:56.735Z,99364.50
2024-02-23T18:16:23.461Z,99352.28
2024-02-23T18:18:52.051Z,99361.78
2024-02-23T18:21:18.627Z,99357.31
2024-02-23T18:23:45.509Z,99357.56
2024-02-23T18:26:15.730Z,99362.00
2024-02-23T18:28:42.621Z,99358.72
2024-02-23T18:31:09.633Z,99357.66
2024-02-23T18:33:36.519Z,99361.13
2024-02-23T18:36:03.587Z,99351.44
2024-02-23T18:38:30.036Z,99355.03
2024-02-23T18:40:59.069Z,99356.56
2024-02-23T18:43:26.162Z,99361.00
2024-02-23T18:45:52.752Z,99351.44
2024-02-23T18:48:21.172Z,99357.88
2024-02-23T18:50:47.966Z,99358.34
2024-02-23T18:53:20.693Z,99351.41
2024-02-23T18:55:47.340Z,99343.84
2024-02-23T18:58:14.124Z,99350.69
2024-02-23T19:00:43.068Z,99342.78
2024-02-23T19:03:09.708Z,99347.78
2024-02-23T19:05:38.425Z,99350.06
2024-02-23T19:08:07.910Z,99347.91
2024-02-23T19:10:37.187Z,99348.50
2024-02-23T19:13:03.854Z,99355.44
2024-02-23T19:15:31.314Z,99352.09
2024-02-23T19:17:57.942Z,99353.78
2024-02-23T19:20:24.800Z,99350.06
2024-02-23T19:22:58.092Z,99351.88
2024-02-23T19:25:24.529Z,99365.88
2024-02-23T19:27:50.996Z,99370.66
2024-02-23T19:30:17.798Z,99371.16
2024-02-23T19:32:44.573Z,99361.13
2024-02-23T19:35:11.397Z,99366.03
2024-02-23T19:37:38.687Z,99358.34
2024-02-23T19:40:06.129Z,99359.56
2024-02-23T19:42:34.324Z,99340.94
2024-02-23T19:45:03.703Z,99331.84
2024-02-23T19:47:33.412Z,99338.94
2024-02-23T19:50:00.606Z,99339.19
2024-02-23T19:52:30.307Z,99343.72
2024-02-23T19:54:59.929Z,99338.53
2024-02-23T19:57:27.992Z,99343.59
2024-02-23T19:59:54.787Z,99343.59
2024-02-23T20:02:21.459Z,99339.63
2024-02-23T20:04:53.571Z,99345.66
2024-02-23T20:07:22.511Z,99352.97
2024-02-23T20:09:49.857Z,99357.28
2024-02-23T20:12:20.289Z,99350.56
2024-02-23T20:14:47.791Z,99343.59
2024-02-23T20:17:15.960Z,99344.56
2024-02-23T20:19:44.282Z,99348.88
2024-02-23T20:22:14.889Z,99359.56
2024-02-23T20:24:43.153Z,99392.75
2024-02-23T20:27:12.156Z,99401.47
2024-02-23T20:29:41.158Z,99396.34
2024-02-23T20:32:16.143Z,99396.22
2024-02-23T20:34:56.641Z,99386.25
2024-02-23T20:37:25.529Z,99392.03
2024-02-23T20:39:52.003Z,99390.25
2024-02-23T20:42:18.463Z,99397.31
2024-02-23T20:44:48.795Z,99395.28
2024-02-23T20:47:19.801Z,99396.63
2024-02-23T20:49:49.766Z,99397.13
2024-02-23T20:52:18.315Z,99403.13
2024-02-23T20:54:49.443Z,99404.81
2024-02-23T20:57:26.055Z,99405.63
2024-02-23T20:59:52.649Z,99403.72
2024-02-23T21:02:25.168Z,99403.59
2024-02-23T21:04:51.957Z,99409.00
2024-02-23T21:07:19.650Z,99403.72
2024-02-23T21:09:47.358Z,99401.81
2024-02-23T21:12:14.969Z,99406.25
2024-02-23T21:14:43.810Z,99401.69
2024-02-23T21:17:10.474Z,99397.38
2024-02-23T21:19:37.173Z,99404.34
2024-02-23T21:22:04.061Z,99395.69
2024-02-23T21:24:31.278Z,99394.63
2024-02-23T21:26:58.417Z,99400.41
2024-02-23T21:29:25.112Z,99399.91
2024-02-23T21:31:51.733Z,99404.13
2024-02-23T21:34:18.345Z,99401.50
2024-02-23T21:36:44.907Z,99408.56
2024-02-23T21:39:11.425Z,99404.47
2024-02-23T21:41:38.010Z,99413.69
2024-02-23T21:44:06.803Z,99416.56
2024-02-23T21:46:33.474Z,99424.63
2024-02-23T21:49:03.298Z,99424.63
2024-02-23T21:51:30.417Z,99432.53
2024-02-23T21:53:57.339Z,99416.78
2024-02-23T21:56:24.666Z,99424.13
2024-02-23T21:58:51.392Z,99432.16
2024-02-23T22:01:21.669Z,99420.03
2024-02-23T22:03:53.351Z,99431.53
2024-02-23T22:06:22.394Z,99418.78
2024-02-23T22:08:49.320Z,99414.59
2024-02-23T22:11:16.438Z,99427.91
2024-02-23T22:13:43.212Z,99413.97
2024-02-23T22:16:09.912Z,99415.88
2024-02-23T22:18:36.559Z,99415.19
2024-02-23T22:21:06.026Z,99410.97
2024-02-23T22:23:32.541Z,99413.59
2024-02-23T22:26:00.138Z,99417.09
2024-02-23T22:28:26.720Z,99411.94
2024-02-23T22:30:53.164Z,99417.31
2024-02-23T22:33:20.098Z,99421.38
2024-02-23T22:35:46.791Z,99418.31
2024-02-23T22:38:13.466Z,99406.00
2024-02-23T22:40:40.034Z,99410.53
2024-02-23T22:43:06.544Z,99410.88
2024-02-23T22:45:33.231Z,99408.47
2024-02-23T22:48:00.447Z,99411.94
2024-02-23T22:50:27.407Z,99415.66
2024-02-23T22:52:54.114Z,99407.34
2024-02-23T22:55:20.873Z,99415.72
2024-02-23T22:57:47.547Z,99411.00
2024-02-23T23:00:14.669Z,99406.91
2024-02-23T23:02:41.608Z,99403.75
2024-02-23T23:05:08.539Z,99412.63
2024-02-23T23:07:37.250Z,99410.31
2024-02-23T23:10:04.714Z,99409.59
2024-02-23T23:12:32.554Z,99410.09
2024-02-23T23:14:59.217Z,99415.38
2024-02-23T23:17:25.881Z,99412.09
2024-02-23T23:19:52.688Z,99414.84
2024-02-23T23:22:19.278Z,99417.09
2024-02-23T23:24:45.869Z,99417.31
2024-02-23T23:27:12.401Z,99430.50
2024-02-23T23:29:39.142Z,99430.81
2024-02-23T23:32:06.016Z,99427.34
2024-02-23T23:34:32.604Z,99430.81
2024-02-23T23:36:59.137Z,99429.13
2024-02-23T23:39:25.676Z,99431.03
2024-02-23T23:41:52.817Z,99430.06
2024-02-23T23:44:19.420Z,99433.13
2024-02-23T23:46:45.950Z,99431.56
2024-02-23T23:49:12.718Z,99425.44
2024-02-23T23:51:49.723Z,99432.63
2024-02-23T23:54:23.490Z,99429.13
2024-02-23T23:56:50.263Z,99437.03
2024-02-23T23:59:17.001Z,99434.53
